sensor_id;sensor_type;location;lat;lon;timestamp;pressure;altitude;pressure_sealevel;temperature;humidity
11198;BME280;5655;48.744;9.162;2023-03-04T00:02:07;96605.50;;;4.80;nan
11198;BME280;5655;48.744;9.162;2023-03-04T00:04:33;96614.00;;;4.65;nan
11198;BME280;5655;48.744;9.162;2023-03-04T00:06:58;96616.63;;;4.74;nan
11198;BME280;5655;48.744;9.162;2023-03-04T00:09:23;96617.53;;;4.78;nan
11198;BME280;5655;48.744;9.162;2023-03-04T00:11:48;96621.03;;;4.99;nan
11198;BME280;5655;48.744;9.162;2023-03-04T00:14:14;96619.16;;;4.99;nan
11198;BME280;5655;48.744;9.162;2023-03-04T00:16:39;96619.66;;;4.93;nan
11198;BME280;5655;48.744;9.162;2023-03-04T00:19:04;96618.88;;;4.92;nan
11198;BME280;5655;48.744;9.162;2023-03-04T00:21:30;96615.13;;;3.83;nan
11198;BME280;5655;48.744;9.162;2023-03-04T00:23:55;96612.50;;;3.66;nan
11198;BME280;5655;48.744;9.162;2023-03-04T00:26:21;96612.94;;;3.85;nan
11198;BME280;5655;48.744;9.162;2023-03-04T00:28:46;96610.28;;;3.77;nan
11198;BME280;5655;48.744;9.162;2023-03-04T00:31:12;96614.44;;;4.21;nan
11198;BME280;5655;48.744;9.162;2023-03-04T00:33:38;96615.81;;;4.35;nan
11198;BME280;5655;48.744;9.162;2023-03-04T00:36:05;96608.09;;;4.04;nan
11198;BME280;5655;48.744;9.162;2023-03-04T00:38:30;96615.53;;;4.20;nan
11198;BME280;5655;48.744;9.162;2023-03-04T00:40:55;96610.06;;;4.33;nan
11198;BME280;5655;48.744;9.162;2023-03-04T00:43:21;96599.28;;;4.38;nan
11198;BME280;5655;48.744;9.162;2023-03-04T00:45:47;96602.84;;;4.42;nan
11198;BME280;5655;48.744;9.162;2023-03-04T00:48:12;96605.19;;;4.44;nan
11198;BME280;5655;48.744;9.162;2023-03-04T00:50:38;96593.09;;;4.26;nan
11198;BME280;5655;48.744;9.162;2023-03-04T00:53:04;96594.63;;;4.35;nan
11198;BME280;5655;48.744;9.162;2023-03-04T00:55:29;96612.06;;;4.36;nan
11198;BME280;5655;48.744;9.162;2023-03-04T00:57:55;96602.19;;;3.82;nan
11198;BME280;5655;48.744;9.162;2023-03-04T01:00:20;96611.22;;;3.89;nan
11198;BME280;5655;48.744;9.162;2023-03-04T01:02:46;96603.41;;;4.01;nan
11198;BME280;5655;48.744;9.162;2023-03-04T01:05:11;96595.13;;;4.11;nan
11198;BME280;5655;48.744;9.162;2023-03-04T01:07:37;96607.50;;;3.82;nan
11198;BME280;5655;48.744;9.162;2023-03-04T01:10:03;96606.41;;;3.83;nan
11198;BME280;5655;48.744;9.162;2023-03-04T01:12:28;96595.97;;;3.60;nan
11198;BME280;5655;48.744;9.162;2023-03-04T01:14:54;96596.91;;;3.73;nan
11198;BME280;5655;48.744;9.162;2023-03-04T01:17:19;96599.84;;;3.89;nan
11198;BME280;5655;48.744;9.162;2023-03-04T01:19:44;96600.16;;;3.87;nan
11198;BME280;5655;48.744;9.162;2023-03-04T01:22:10;96596.91;;;3.82;nan
11198;BME280;5655;48.744;9.162;2023-03-04T01:24:36;96597.06;;;3.68;nan
11198;BME280;5655;48.744;9.162;2023-03-04T01:27:01;96599.84;;;3.80;nan
11198;BME280;5655;48.744;9.162;2023-03-04T01:29:27;96587.41;;;3.81;nan
11198;BME280;5655;48.744;9.162;2023-03-04T01:31:52;96588.81;;;3.78;nan
11198;BME280;5655;48.744;9.162;2023-03-04T01:34:17;96588.81;;;3.70;nan
11198;BME280;5655;48.744;9.162;2023-03-04T01:36:43;96589.25;;;3.89;nan
11198;BME280;5655;48.744;9.162;2023-03-04T01:39:08;96587.53;;;3.84;nan
11198;BME280;5655;48.744;9.162;2023-03-04T01:41:33;96586.72;;;3.06;nan
11198;BME280;5655;48.744;9.162;2023-03-04T01:43:59;96586.00;;;3.23;nan
11198;BME280;5655;48.744;9.162;2023-03-04T01:46:26;96580.25;;;3.30;nan
11198;BME280;5655;48.744;9.162;2023-03-04T01:48:52;96582.44;;;3.45;nan
11198;BME280;5655;48.744;9.162;2023-03-04T01:51:19;96579.00;;;3.36;nan
11198;BME280;5655;48.744;9.162;2023-03-04T01:53:46;96577.44;;;3.52;nan
11198;BME280;5655;48.744;9.162;2023-03-04T01:56:28;96579.94;;;3.23;nan
11198;BME280;5655;48.744;9.162;2023-03-04T01:59:21;96583.50;;;3.18;nan
11198;BME280;5655;48.744;9.162;2023-03-04T02:01:53;96569.47;;;2.92;nan
11198;BME280;5655;48.744;9.162;2023-03-04T02:04:21;96575.19;;;2.85;nan
11198;BME280;5655;48.744;9.162;2023-03-04T02:06:48;96571.97;;;2.49;nan
11198;BME280;5655;48.744;9.162;2023-03-04T02:09:15;96571.63;;;2.42;nan
11198;BME280;5655;48.744;9.162;2023-03-04T02:11:41;96565.19;;;2.65;nan
11198;BME280;5655;48.744;9.162;2023-03-04T02:14:09;96561.94;;;2.77;nan
11198;BME280;5655;48.744;9.162;2023-03-04T02:16:35;96565.41;;;2.46;nan
11198;BME280;5655;48.744;9.162;2023-03-04T02:19:00;96562.97;;;2.50;nan
11198;BME280;5655;48.744;9.162;2023-03-04T02:21:31;96563.78;;;2.59;nan
11198;BME280;5655;48.744;9.162;2023-03-04T02:24:28;96559.56;;;2.58;nan
11198;BME280;5655;48.744;9.162;2023-03-04T02:26:55;96568.72;;;2.52;nan
11198;BME280;5655;48.744;9.162;2023-03-04T02:29:21;96562.75;;;2.38;nan
11198;BME280;5655;48.744;9.162;2023-03-04T02:31:50;96554.75;;;2.20;nan
11198;BME280;5655;48.744;9.162;2023-03-04T02:34:19;96561.19;;;2.76;nan
11198;BME280;5655;48.744;9.162;2023-03-04T02:36:46;96562.69;;;2.60;nan
11198;BME280;5655;48.744;9.162;2023-03-04T02:41:53;96552.78;;;2.74;nan
11198;BME280;5655;48.744;9.162;2023-03-04T02:44:21;96562.72;;;2.77;nan
11198;BME280;5655;48.744;9.162;2023-03-04T02:46:48;96566.75;;;2.66;nan
11198;BME280;5655;48.744;9.162;2023-03-04T02:49:14;96556.59;;;2.59;nan
11198;BME280;5655;48.744;9.162;2023-03-04T02:51:40;96568.50;;;2.40;nan
11198;BME280;5655;48.744;9.162;2023-03-04T02:54:21;96565.13;;;2.48;nan
11198;BME280;5655;48.744;9.162;2023-03-04T02:56:55;96561.25;;;2.45;nan
11198;BME280;5655;48.744;9.162;2023-03-04T02:59:22;96566.59;;;2.23;nan
11198;BME280;5655;48.744;9.162;2023-03-04T03:01:47;96564.72;;;2.23;nan
11198;BME280;5655;48.744;9.162;2023-03-04T03:04:13;96558.81;;;2.26;nan
11198;BME280;5655;48.744;9.162;2023-03-04T03:06:39;96568.44;;;2.22;nan
11198;BME280;5655;48.744;9.162;2023-03-04T03:09:05;96554.53;;;2.08;nan
11198;BME280;5655;48.744;9.162;2023-03-04T03:11:30;96555.19;;;2.14;nan
11198;BME280;5655;48.744;9.162;2023-03-04T03:13:56;96558.00;;;2.17;nan
11198;BME280;5655;48.744;9.162;2023-03-04T03:16:21;96558.75;;;2.09;nan
11198;BME280;5655;48.744;9.162;2023-03-04T03:18:47;96560.22;;;1.93;nan
11198;BME280;5655;48.744;9.162;2023-03-04T03:21:12;96565.84;;;2.00;nan
11198;BME280;5655;48.744;9.162;2023-03-04T03:23:38;96564.78;;;1.79;nan
11198;BME280;5655;48.744;9.162;2023-03-04T03:26:04;96549.66;;;1.93;nan
11198;BME280;5655;48.744;9.162;2023-03-04T03:28:29;96563.25;;;1.87;nan
11198;BME280;5655;48.744;9.162;2023-03-04T03:30:55;96556.38;;;1.77;nan
11198;BME280;5655;48.744;9.162;2023-03-04T03:33:20;96556.91;;;1.88;nan
11198;BME280;5655;48.744;9.162;2023-03-04T03:35:46;96560.34;;;1.66;nan
11198;BME280;5655;48.744;9.162;2023-03-04T03:38:11;96558.06;;;1.51;nan
11198;BME280;5655;48.744;9.162;2023-03-04T03:40:37;96554.94;;;1.49;nan
11198;BME280;5655;48.744;9.162;2023-03-04T03:43:02;96565.13;;;1.42;nan
11198;BME280;5655;48.744;9.162;2023-03-04T03:45:27;96549.53;;;1.31;nan
11198;BME280;5655;48.744;9.162;2023-03-04T03:47:53;96555.88;;;1.30;nan
11198;BME280;5655;48.744;9.162;2023-03-04T03:50:18;96550.72;;;1.25;nan
11198;BME280;5655;48.744;9.162;2023-03-04T03:52:43;96553.19;;;1.22;nan
11198;BME280;5655;48.744;9.162;2023-03-04T03:55:09;96554.56;;;1.19;nan
11198;BME280;5655;48.744;9.162;2023-03-04T03:57:34;96550.84;;;1.20;nan
11198;BME280;5655;48.744;9.162;2023-03-04T04:00:00;96549.06;;;1.29;nan
11198;BME280;5655;48.744;9.162;2023-03-04T04:02:25;96550.72;;;1.25;nan
11198;BME280;5655;48.744;9.162;2023-03-04T04:04:50;96543.41;;;1.22;nan
11198;BME280;5655;48.744;9.162;2023-03-04T04:07:16;96552.78;;;1.28;nan
11198;BME280;5655;48.744;9.162;2023-03-04T04:09:41;96548.94;;;1.34;nan
11198;BME280;5655;48.744;9.162;2023-03-04T04:12:07;96549.53;;;1.31;nan
11198;BME280;5655;48.744;9.162;2023-03-04T04:14:33;96549.44;;;1.36;nan
11198;BME280;5655;48.744;9.162;2023-03-04T04:16:58;96555.53;;;1.23;nan
11198;BME280;5655;48.744;9.162;2023-03-04T04:19:24;96555.25;;;1.25;nan
11198;BME280;5655;48.744;9.162;2023-03-04T04:21:49;96558.94;;;1.24;nan
11198;BME280;5655;48.744;9.162;2023-03-04T04:24:15;96563.78;;;1.30;nan
11198;BME280;5655;48.744;9.162;2023-03-04T04:26:41;96552.66;;;1.33;nan
11198;BME280;5655;48.744;9.162;2023-03-04T04:29:07;96558.59;;;1.39;nan
11198;BME280;5655;48.744;9.162;2023-03-04T04:31:33;96556.38;;;1.32;nan
11198;BME280;5655;48.744;9.162;2023-03-04T04:33:58;96556.38;;;1.32;nan
11198;BME280;5655;48.744;9.162;2023-03-04T04:36:24;96542.50;;;0.91;nan
11198;BME280;5655;48.744;9.162;2023-03-04T04:38:49;96558.00;;;1.06;nan
11198;BME280;5655;48.744;9.162;2023-03-04T04:41:20;96559.19;;;1.36;nan
11198;BME280;5655;48.744;9.162;2023-03-04T04:43:46;96552.13;;;1.09;nan
11198;BME280;5655;48.744;9.162;2023-03-04T04:46:12;96552.94;;;1.10;nan
11198;BME280;5655;48.744;9.162;2023-03-04T04:48:37;96559.72;;;1.24;nan
11198;BME280;5655;48.744;9.162;2023-03-04T04:51:03;96557.13;;;1.47;nan
11198;BME280;5655;48.744;9.162;2023-03-04T04:53:29;96556.59;;;1.22;nan
11198;BME280;5655;48.744;9.162;2023-03-04T04:55:54;96555.66;;;1.05;nan
11198;BME280;5655;48.744;9.162;2023-03-04T04:58:19;96565.56;;;1.21;nan
11198;BME280;5655;48.744;9.162;2023-03-04T05:00:45;96564.00;;;0.98;nan
11198;BME280;5655;48.744;9.162;2023-03-04T05:03:10;96555.81;;;0.86;nan
11198;BME280;5655;48.744;9.162;2023-03-04T05:05:35;96557.84;;;0.89;nan
11198;BME280;5655;48.744;9.162;2023-03-04T05:08:01;96551.22;;;0.78;nan
11198;BME280;5655;48.744;9.162;2023-03-04T05:10:26;96557.69;;;0.72;nan
11198;BME280;5655;48.744;9.162;2023-03-04T05:12:51;96559.44;;;0.63;nan
11198;BME280;5655;48.744;9.162;2023-03-04T05:15:16;96558.75;;;0.71;nan
11198;BME280;5655;48.744;9.162;2023-03-04T05:17:42;96554.94;;;0.77;nan
11198;BME280;5655;48.744;9.162;2023-03-04T05:20:08;96566.03;;;1.01;nan
11198;BME280;5655;48.744;9.162;2023-03-04T05:22:34;96560.38;;;0.94;nan
11198;BME280;5655;48.744;9.162;2023-03-04T05:24:59;96569.63;;;1.05;nan
11198;BME280;5655;48.744;9.162;2023-03-04T05:27:24;96573.31;;;1.04;nan
11198;BME280;5655;48.744;9.162;2023-03-04T05:29:50;96567.59;;;1.02;nan
11198;BME280;5655;48.744;9.162;2023-03-04T05:32:15;96566.38;;;1.08;nan
11198;BME280;5655;48.744;9.162;2023-03-04T05:34:40;96573.63;;;1.16;nan
11198;BME280;5655;48.744;9.162;2023-03-04T05:37:06;96574.63;;;0.93;nan
11198;BME280;5655;48.744;9.162;2023-03-04T05:39:31;96572.50;;;0.68;nan
11198;BME280;5655;48.744;9.162;2023-03-04T05:41:56;96568.03;;;0.68;nan
11198;BME280;5655;48.744;9.162;2023-03-04T05:44:22;96571.63;;;0.86;nan
11198;BME280;5655;48.744;9.162;2023-03-04T05:46:47;96571.91;;;0.84;nan
11198;BME280;5655;48.744;9.162;2023-03-04T05:49:12;96568.56;;;0.93;nan
11198;BME280;5655;48.744;9.162;2023-03-04T05:51:38;96579.31;;;0.96;nan
11198;BME280;5655;48.744;9.162;2023-03-04T05:54:03;96587.72;;;0.98;nan
11198;BME280;5655;48.744;9.162;2023-03-04T05:56:28;96576.19;;;0.94;nan
11198;BME280;5655;48.744;9.162;2023-03-04T05:58:58;96572.63;;;1.12;nan
11198;BME280;5655;48.744;9.162;2023-03-04T06:01:24;96575.22;;;0.90;nan
11198;BME280;5655;48.744;9.162;2023-03-04T06:03:49;96577.00;;;0.54;nan
11198;BME280;5655;48.744;9.162;2023-03-04T06:06:14;96589.19;;;0.63;nan
11198;BME280;5655;48.744;9.162;2023-03-04T06:08:40;96577.78;;;0.40;nan
11198;BME280;5655;48.744;9.162;2023-03-04T06:11:05;96585.09;;;0.71;nan
11198;BME280;5655;48.744;9.162;2023-03-04T06:13:32;96583.41;;;0.47;nan
11198;BME280;5655;48.744;9.162;2023-03-04T06:15:58;96583.81;;;0.55;nan
11198;BME280;5655;48.744;9.162;2023-03-04T06:18:25;96581.38;;;0.44;nan
11198;BME280;5655;48.744;9.162;2023-03-04T06:20:55;96588.31;;;0.40;nan
11198;BME280;5655;48.744;9.162;2023-03-04T06:23:20;96588.38;;;0.35;nan
11198;BME280;5655;48.744;9.162;2023-03-04T06:25:45;96588.69;;;0.47;nan
11198;BME280;5655;48.744;9.162;2023-03-04T06:28:11;96596.28;;;0.35;nan
11198;BME280;5655;48.744;9.162;2023-03-04T06:30:36;96598.25;;;0.71;nan
11198;BME280;5655;48.744;9.162;2023-03-04T06:33:01;96599.53;;;0.60;nan
11198;BME280;5655;48.744;9.162;2023-03-04T06:35:27;96605.28;;;0.62;nan
11198;BME280;5655;48.744;9.162;2023-03-04T06:37:52;96604.59;;;0.42;nan
11198;BME280;5655;48.744;9.162;2023-03-04T06:40:17;96614.63;;;0.40;nan
11198;BME280;5655;48.744;9.162;2023-03-04T06:42:42;96618.16;;;0.50;nan
11198;BME280;5655;48.744;9.162;2023-03-04T06:45:08;96621.28;;;0.65;nan
11198;BME280;5655;48.744;9.162;2023-03-04T06:47:34;96614.53;;;0.45;nan
11198;BME280;5655;48.744;9.162;2023-03-04T06:49:59;96613.94;;;0.21;nan
11198;BME280;5655;48.744;9.162;2023-03-04T06:52:25;96611.59;;;0.20;nan
11198;BME280;5655;48.744;9.162;2023-03-04T06:54:50;96612.84;;;0.22;nan
11198;BME280;5655;48.744;9.162;2023-03-04T06:57:15;96621.75;;;0.54;nan
11198;BME280;5655;48.744;9.162;2023-03-04T06:59:41;96630.47;;;0.68;nan
11198;BME280;5655;48.744;9.162;2023-03-04T07:02:10;96632.22;;;0.72;nan
11198;BME280;5655;48.744;9.162;2023-03-04T07:04:35;96635.00;;;0.49;nan
11198;BME280;5655;48.744;9.162;2023-03-04T07:07:00;96636.09;;;0.75;nan
11198;BME280;5655;48.744;9.162;2023-03-04T07:09:26;96644.00;;;0.88;nan
11198;BME280;5655;48.744;9.162;2023-03-04T07:11:51;96648.09;;;1.08;nan
11198;BME280;5655;48.744;9.162;2023-03-04T07:14:16;96652.19;;;1.14;nan
11198;BME280;5655;48.744;9.162;2023-03-04T07:16:42;96641.13;;;1.40;nan
11198;BME280;5655;48.744;9.162;2023-03-04T07:19:07;96647.81;;;1.10;nan
11198;BME280;5655;48.744;9.162;2023-03-04T07:21:32;96649.97;;;1.08;nan
11198;BME280;5655;48.744;9.162;2023-03-04T07:23:58;96653.06;;;1.23;nan
11198;BME280;5655;48.744;9.162;2023-03-04T07:26:23;96667.91;;;1.33;nan
11198;BME280;5655;48.744;9.162;2023-03-04T07:28:48;96652.28;;;0.96;nan
11198;BME280;5655;48.744;9.162;2023-03-04T07:31:25;96657.16;;;1.29;nan
11198;BME280;5655;48.744;9.162;2023-03-04T07:33:55;96671.09;;;1.44;nan
11198;BME280;5655;48.744;9.162;2023-03-04T07:36:21;96668.00;;;1.28;nan
11198;BME280;5655;48.744;9.162;2023-03-04T07:38:47;96666.53;;;1.08;nan
11198;BME280;5655;48.744;9.162;2023-03-04T07:41:14;96658.63;;;1.22;nan
11198;BME280;5655;48.744;9.162;2023-03-04T07:43:39;96664.78;;;1.17;nan
11198;BME280;5655;48.744;9.162;2023-03-04T07:46:05;96670.03;;;1.31;nan
11198;BME280;5655;48.744;9.162;2023-03-04T07:48:30;96663.13;;;1.21;nan
11198;BME280;5655;48.744;9.162;2023-03-04T07:51:17;96669.06;;;1.41;nan
11198;BME280;5655;48.744;9.162;2023-03-04T07:53:45;96677.44;;;1.43;nan
11198;BME280;5655;48.744;9.162;2023-03-04T07:56:15;96677.94;;;1.45;nan
11198;BME280;5655;48.744;9.162;2023-03-04T07:58:41;96673.19;;;1.33;nan
11198;BME280;5655;48.744;9.162;2023-03-04T08:01:16;96681.72;;;1.52;nan
11198;BME280;5655;48.744;9.162;2023-03-04T08:03:42;96673.19;;;1.19;nan
11198;BME280;5655;48.744;9.162;2023-03-04T08:06:09;96687.25;;;1.15;nan
11198;BME280;5655;48.744;9.162;2023-03-04T08:08:35;96684.91;;;1.13;nan
11198;BME280;5655;48.744;9.162;2023-03-04T08:11:09;96684.88;;;1.27;nan
11198;BME280;5655;48.744;9.162;2023-03-04T08:13:35;96690.94;;;1.00;nan
11198;BME280;5655;48.744;9.162;2023-03-04T08:16:01;96686.78;;;0.99;nan
11198;BME280;5655;48.744;9.162;2023-03-04T08:18:26;96696.91;;;1.19;nan
11198;BME280;5655;48.744;9.162;2023-03-04T08:20:52;96688.41;;;0.68;nan
11198;BME280;5655;48.744;9.162;2023-03-04T08:23:18;96683.41;;;0.66;nan
11198;BME280;5655;48.744;9.162;2023-03-04T08:25:43;96686.25;;;0.70;nan
11198;BME280;5655;48.744;9.162;2023-03-04T08:28:09;96685.28;;;0.79;nan
11198;BME280;5655;48.744;9.162;2023-03-04T08:30:35;96701.09;;;0.93;nan
11198;BME280;5655;48.744;9.162;2023-03-04T08:33:01;96695.06;;;0.93;nan
11198;BME280;5655;48.744;9.162;2023-03-04T08:35:27;96701.41;;;1.05;nan
11198;BME280;5655;48.744;9.162;2023-03-04T08:37:53;96701.41;;;1.05;nan
11198;BME280;5655;48.744;9.162;2023-03-04T08:40:18;96711.44;;;1.30;nan
11198;BME280;5655;48.744;9.162;2023-03-04T08:42:44;96705.19;;;0.72;nan
11198;BME280;5655;48.744;9.162;2023-03-04T08:45:10;96705.59;;;1.06;nan
11198;BME280;5655;48.744;9.162;2023-03-04T08:47:35;96713.41;;;1.11;nan
11198;BME280;5655;48.744;9.162;2023-03-04T08:50:01;96707.06;;;0.85;nan
11198;BME280;5655;48.744;9.162;2023-03-04T08:52:28;96707.56;;;1.14;nan
11198;BME280;5655;48.744;9.162;2023-03-04T08:54:54;96710.38;;;1.31;nan
11198;BME280;5655;48.744;9.162;2023-03-04T08:57:19;96714.56;;;1.05;nan
11198;BME280;5655;48.744;9.162;2023-03-04T08:59:44;96715.53;;;1.50;nan
11198;BME280;5655;48.744;9.162;2023-03-04T09:02:10;96707.84;;;1.26;nan
11198;BME280;5655;48.744;9.162;2023-03-04T09:04:35;96714.28;;;0.93;nan
11198;BME280;5655;48.744;9.162;2023-03-04T09:07:01;96715.28;;;1.24;nan
11198;BME280;5655;48.744;9.162;2023-03-04T09:09:26;96713.19;;;1.35;nan
11198;BME280;5655;48.744;9.162;2023-03-04T09:11:51;96718.00;;;1.33;nan
11198;BME280;5655;48.744;9.162;2023-03-04T09:14:17;96720.03;;;1.36;nan
11198;BME280;5655;48.744;9.162;2023-03-04T09:16:42;96730.69;;;1.45;nan
11198;BME280;5655;48.744;9.162;2023-03-04T09:19:07;96727.25;;;1.58;nan
11198;BME280;5655;48.744;9.162;2023-03-04T09:21:33;96727.84;;;1.27;nan
11198;BME280;5655;48.744;9.162;2023-03-04T09:23:58;96731.78;;;1.16;nan
11198;BME280;5655;48.744;9.162;2023-03-04T09:26:25;96723.09;;;1.29;nan
11198;BME280;5655;48.744;9.162;2023-03-04T09:28:52;96722.78;;;1.31;nan
11198;BME280;5655;48.744;9.162;2023-03-04T09:31:18;96719.53;;;1.34;nan
11198;BME280;5655;48.744;9.162;2023-03-04T09:33:44;96724.09;;;1.56;nan
11198;BME280;5655;48.744;9.162;2023-03-04T09:36:11;96731.56;;;1.54;nan
11198;BME280;5655;48.744;9.162;2023-03-04T09:38:37;96727.06;;;1.54;nan
11198;BME280;5655;48.744;9.162;2023-03-04T09:41:07;96736.88;;;1.76;nan
11198;BME280;5655;48.744;9.162;2023-03-04T09:43:34;96731.84;;;2.02;nan
11198;BME280;5655;48.744;9.162;2023-03-04T09:46:02;96735.13;;;1.71;nan
11198;BME280;5655;48.744;9.162;2023-03-04T09:48:38;96731.72;;;1.71;nan
11198;BME280;5655;48.744;9.162;2023-03-04T09:54:06;96729.75;;;1.76;nan
11198;BME280;5655;48.744;9.162;2023-03-04T09:56:39;96728.44;;;2.23;nan
11198;BME280;5655;48.744;9.162;2023-03-04T09:59:42;96739.56;;;2.20;nan
11198;BME280;5655;48.744;9.162;2023-03-04T10:02:06;96736.38;;;1.88;nan
11198;BME280;5655;48.744;9.162;2023-03-04T10:04:45;96735.75;;;1.91;nan
11198;BME280;5655;48.744;9.162;2023-03-04T10:07:18;96739.25;;;2.00;nan
11198;BME280;5655;48.744;9.162;2023-03-04T10:12:15;96739.78;;;2.24;nan
11198;BME280;5655;48.744;9.162;2023-03-04T10:14:57;96738.50;;;2.21;nan
11198;BME280;5655;48.744;9.162;2023-03-04T10:17:39;96736.59;;;2.36;nan
11198;BME280;5655;48.744;9.162;2023-03-04T10:20:45;96733.09;;;2.71;nan
11198;BME280;5655;48.744;9.162;2023-03-04T10:23:18;96727.28;;;2.60;nan
11198;BME280;5655;48.744;9.162;2023-03-04T10:25:46;96733.47;;;2.34;nan
11198;BME280;5655;48.744;9.162;2023-03-04T10:28:18;96728.03;;;2.83;nan
11198;BME280;5655;48.744;9.162;2023-03-04T10:33:16;96729.59;;;2.84;nan
11198;BME280;5655;48.744;9.162;2023-03-04T10:35:44;96712.91;;;3.06;nan
11198;BME280;5655;48.744;9.162;2023-03-04T10:38:12;96724.09;;;3.11;nan
11198;BME280;5655;48.744;9.162;2023-03-04T10:40:38;96728.81;;;3.23;nan
11198;BME280;5655;48.744;9.162;2023-03-04T10:43:04;96715.50;;;2.97;nan
11198;BME280;5655;48.744;9.162;2023-03-04T10:45:37;96726.59;;;3.16;nan
11198;BME280;5655;48.744;9.162;2023-03-04T10:48:03;96718.31;;;3.01;nan
11198;BME280;5655;48.744;9.162;2023-03-04T10:50:28;96719.28;;;3.13;nan
11198;BME280;5655;48.744;9.162;2023-03-04T10:52:55;96723.16;;;3.55;nan
11198;BME280;5655;48.744;9.162;2023-03-04T10:55:21;96713.81;;;3.01;nan
11198;BME280;5655;48.744;9.162;2023-03-04T10:57:50;96711.56;;;3.26;nan
11198;BME280;5655;48.744;9.162;2023-03-04T11:02:42;96706.63;;;2.93;nan
11198;BME280;5655;48.744;9.162;2023-03-04T11:07:39;96706.25;;;3.26;nan
11198;BME280;5655;48.744;9.162;2023-03-04T11:10:23;96702.63;;;3.61;nan
11198;BME280;5655;48.744;9.162;2023-03-04T11:15:22;96696.53;;;3.60;nan
11198;BME280;5655;48.744;9.162;2023-03-04T11:17:53;96697.00;;;3.71;nan
11198;BME280;5655;48.744;9.162;2023-03-04T11:22:56;96700.13;;;3.73;nan
11198;BME280;5655;48.744;9.162;2023-03-04T11:25:26;96686.22;;;3.42;nan
11198;BME280;5655;48.744;9.162;2023-03-04T11:28:15;96685.81;;;3.74;nan
11198;BME280;5655;48.744;9.162;2023-03-04T11:30:51;96691.25;;;3.52;nan
11198;BME280;5655;48.744;9.162;2023-03-04T11:33:32;96693.06;;;3.43;nan
11198;BME280;5655;48.744;9.162;2023-03-04T11:38:49;96685.94;;;3.52;nan
11198;BME280;5655;48.744;9.162;2023-03-04T11:41:35;96689.53;;;3.64;nan
11198;BME280;5655;48.744;9.162;2023-03-04T11:44:04;96690.31;;;3.65;nan
11198;BME280;5655;48.744;9.162;2023-03-04T11:49:54;96677.09;;;3.99;nan
11198;BME280;5655;48.744;9.162;2023-03-04T11:55:33;96672.59;;;3.91;nan
11198;BME280;5655;48.744;9.162;2023-03-04T11:58:15;96667.13;;;4.05;nan
11198;BME280;5655;48.744;9.162;2023-03-04T12:17:53;96645.19;;;3.70;nan
11198;BME280;5655;48.744;9.162;2023-03-04T12:20:40;96634.72;;;4.08;nan
11198;BME280;5655;48.744;9.162;2023-03-04T12:23:20;96628.19;;;4.05;nan
11198;BME280;5655;48.744;9.162;2023-03-04T12:26:12;96633.31;;;4.02;nan
11198;BME280;5655;48.744;9.162;2023-03-04T12:31:31;96625.09;;;3.69;nan
11198;BME280;5655;48.744;9.162;2023-03-04T12:36:53;96627.44;;;3.62;nan
11198;BME280;5655;48.744;9.162;2023-03-04T12:39:39;96609.06;;;3.83;nan
11198;BME280;5655;48.744;9.162;2023-03-04T12:42:17;96611.84;;;3.86;nan
11198;BME280;5655;48.744;9.162;2023-03-04T12:44:49;96600.78;;;3.84;nan
11198;BME280;5655;48.744;9.162;2023-03-04T12:53:16;96601.53;;;4.02;nan
11198;BME280;5655;48.744;9.162;2023-03-04T12:55:46;96601.72;;;3.80;nan
11198;BME280;5655;48.744;9.162;2023-03-04T12:58:24;96589.88;;;3.86;nan
11198;BME280;5655;48.744;9.162;2023-03-04T13:01:02;96600.47;;;3.94;nan
11198;BME280;5655;48.744;9.162;2023-03-04T13:03:50;96591.28;;;3.92;nan
11198;BME280;5655;48.744;9.162;2023-03-04T13:11:43;96591.28;;;3.92;nan
11198;BME280;5655;48.744;9.162;2023-03-04T13:22:32;96595.81;;;3.91;nan
11198;BME280;5655;48.744;9.162;2023-03-04T13:43:44;96587.75;;;3.62;nan
11198;BME280;5655;48.744;9.162;2023-03-04T13:51:35;96584.91;;;3.67;nan
11198;BME280;5655;48.744;9.162;2023-03-04T13:56:30;96581.19;;;3.51;nan
11198;BME280;5655;48.744;9.162;2023-03-04T13:59:04;96591.75;;;3.68;nan
11198;BME280;5655;48.744;9.162;2023-03-04T14:01:57;96591.47;;;3.70;nan
11198;BME280;5655;48.744;9.162;2023-03-04T14:04:38;96584.59;;;3.77;nan
11198;BME280;5655;48.744;9.162;2023-03-04T14:10:17;96589.72;;;3.99;nan
11198;BME280;5655;48.744;9.162;2023-03-04T14:12:48;96595.97;;;3.60;nan
11198;BME280;5655;48.744;9.162;2023-03-04T14:17:49;96584.44;;;3.74;nan
11198;BME280;5655;48.744;9.162;2023-03-04T14:20:37;96584.75;;;3.46;nan
11198;BME280;5655;48.744;9.162;2023-03-04T14:23:23;96583.94;;;3.97;nan
11198;BME280;5655;48.744;9.162;2023-03-04T14:25:49;96576.38;;;3.44;nan
11198;BME280;5655;48.744;9.162;2023-03-04T14:28:17;96568.88;;;3.46;nan
11198;BME280;5655;48.744;9.162;2023-03-04T14:30:51;96575.59;;;3.35;nan
11198;BME280;5655;48.744;9.162;2023-03-04T14:33:21;96576.50;;;3.22;nan
11198;BME280;5655;48.744;9.162;2023-03-04T14:35:50;96575.59;;;3.44;nan
11198;BME280;5655;48.744;9.162;2023-03-04T14:38:27;96571.53;;;3.72;nan
11198;BME280;5655;48.744;9.162;2023-03-04T14:41:03;96568.53;;;3.91;nan
11198;BME280;5655;48.744;9.162;2023-03-04T14:46:16;96556.53;;;3.93;nan
11198;BME280;5655;48.744;9.162;2023-03-04T14:48:49;96555.16;;;3.96;nan
11198;BME280;5655;48.744;9.162;2023-03-04T14:54:03;96539.47;;;3.65;nan
11198;BME280;5655;48.744;9.162;2023-03-04T14:56:30;96555.06;;;3.58;nan
11198;BME280;5655;48.744;9.162;2023-03-04T14:58:57;96540.06;;;3.79;nan
11198;BME280;5655;48.744;9.162;2023-03-04T15:01:33;96542.25;;;3.60;nan
11198;BME280;5655;48.744;9.162;2023-03-04T15:04:04;96543.16;;;3.81;nan
11198;BME280;5655;48.744;9.162;2023-03-04T15:06:33;96543.06;;;3.60;nan
11198;BME280;5655;48.744;9.162;2023-03-04T15:09:15;96545.53;;;3.74;nan
11198;BME280;5655;48.744;9.162;2023-03-04T15:11:55;96544.13;;;3.68;nan
11198;BME280;5655;48.744;9.162;2023-03-04T15:17:22;96550.06;;;3.48;nan
11198;BME280;5655;48.744;9.162;2023-03-04T15:20:00;96549.75;;;3.58;nan
11198;BME280;5655;48.744;9.162;2023-03-04T15:22:26;96547.28;;;3.36;nan
11198;BME280;5655;48.744;9.162;2023-03-04T15:24:52;96543.50;;;3.19;nan
11198;BME280;5655;48.744;9.162;2023-03-04T15:27:19;96536.69;;;3.36;nan
11198;BME280;5655;48.744;9.162;2023-03-04T15:29:48;96544.75;;;3.56;nan
11198;BME280;5655;48.744;9.162;2023-03-04T15:32:13;96545.69;;;3.60;nan
11198;BME280;5655;48.744;9.162;2023-03-04T15:34:39;96550.06;;;3.31;nan
11198;BME280;5655;48.744;9.162;2023-03-04T15:37:04;96544.78;;;3.48;nan
11198;BME280;5655;48.744;9.162;2023-03-04T15:39:30;96541.34;;;3.56;nan
11198;BME280;5655;48.744;9.162;2023-03-04T15:41:55;96539.00;;;3.37;nan
11198;BME280;5655;48.744;9.162;2023-03-04T15:44:20;96535.13;;;3.35;nan